sensor_id;sensor_type;location;lat;lon;timestamp;P1;durP1;ratioP1;P2;durP2;ratioP2
59786;SDS011;45672;51.612;5.536;2022-08-14T00:00:10;7.28;;;5.00;;
59786;SDS011;45672;51.612;5.536;2022-08-14T00:05:04;6.10;;;5.60;;
59786;SDS011;45672;51.612;5.536;2022-08-14T00:07:32;8.18;;;5.47;;
59786;SDS011;45672;51.612;5.536;2022-08-14T00:09:59;7.97;;;5.70;;
59786;SDS011;45672;51.612;5.536;2022-08-14T00:12:25;6.70;;;5.78;;
59786;SDS011;45672;51.612;5.536;2022-08-14T00:14:51;8.38;;;5.95;;
59786;SDS011;45672;51.612;5.536;2022-08-14T00:17:17;6.53;;;5.70;;
59786;SDS011;45672;51.612;5.536;2022-08-14T00:19:42;13.35;;;6.15;;
59786;SDS011;45672;51.612;5.536;2022-08-14T00:22:07;8.65;;;6.28;;
59786;SDS011;45672;51.612;5.536;2022-08-14T00:24:33;11.00;;;5.45;;
59786;SDS011;45672;51.612;5.536;2022-08-14T00:26:58;6.13;;;5.60;;
59786;SDS011;45672;51.612;5.536;2022-08-14T00:29:23;10.00;;;6.45;;
59786;SDS011;45672;51.612;5.536;2022-08-14T00:31:49;10.13;;;6.20;;
59786;SDS011;45672;51.612;5.536;2022-08-14T00:34:14;8.43;;;6.10;;
59786;SDS011;45672;51.612;5.536;2022-08-14T00:36:39;8.38;;;6.00;;
59786;SDS011;45672;51.612;5.536;2022-08-14T00:39:05;10.23;;;6.38;;
59786;SDS011;45672;51.612;5.536;2022-08-14T00:41:31;6.88;;;6.28;;
59786;SDS011;45672;51.612;5.536;2022-08-14T00:43:57;10.07;;;6.90;;
59786;SDS011;45672;51.612;5.536;2022-08-14T00:46:22;9.45;;;6.57;;
59786;SDS011;45672;51.612;5.536;2022-08-14T00:48:48;7.82;;;6.53;;
59786;SDS011;45672;51.612;5.536;2022-08-14T00:51:14;8.27;;;6.70;;
59786;SDS011;45672;51.612;5.536;2022-08-14T00:53:39;7.30;;;6.65;;
59786;SDS011;45672;51.612;5.536;2022-08-14T00:56:06;10.82;;;6.70;;
59786;SDS011;45672;51.612;5.536;2022-08-14T00:58:33;9.82;;;6.90;;
59786;SDS011;45672;51.612;5.536;2022-08-14T01:01:00;14.13;;;6.80;;
59786;SDS011;45672;51.612;5.536;2022-08-14T01:03:28;10.23;;;6.55;;
59786;SDS011;45672;51.612;5.536;2022-08-14T01:05:54;9.00;;;6.40;;
59786;SDS011;45672;51.612;5.536;2022-08-14T01:08:25;7.10;;;6.43;;
59786;SDS011;45672;51.612;5.536;2022-08-14T01:10:52;8.63;;;6.72;;
59786;SDS011;45672;51.612;5.536;2022-08-14T01:13:29;10.10;;;6.60;;
59786;SDS011;45672;51.612;5.536;2022-08-14T01:15:57;7.25;;;6.60;;
59786;SDS011;45672;51.612;5.536;2022-08-14T01:18:25;10.93;;;6.78;;
59786;SDS011;45672;51.612;5.536;2022-08-14T01:21:10;7.95;;;7.20;;
59786;SDS011;45672;51.612;5.536;2022-08-14T01:23:39;7.70;;;6.47;;
59786;SDS011;45672;51.612;5.536;2022-08-14T01:26:10;9.98;;;7.07;;
59786;SDS011;45672;51.612;5.536;2022-08-14T01:28:36;10.32;;;6.20;;
59786;SDS011;45672;51.612;5.536;2022-08-14T01:31:03;7.22;;;6.53;;
59786;SDS011;45672;51.612;5.536;2022-08-14T01:33:32;8.18;;;6.70;;
59786;SDS011;45672;51.612;5.536;2022-08-14T01:35:59;7.97;;;6.80;;
59786;SDS011;45672;51.612;5.536;2022-08-14T01:38:25;7.60;;;6.18;;
59786;SDS011;45672;51.612;5.536;2022-08-14T01:40:55;7.38;;;6.32;;
59786;SDS011;45672;51.612;5.536;2022-08-14T01:43:21;11.63;;;6.68;;
59786;SDS011;45672;51.612;5.536;2022-08-14T01:45:46;10.75;;;7.03;;
59786;SDS011;45672;51.612;5.536;2022-08-14T01:48:15;12.70;;;6.85;;
59786;SDS011;45672;51.612;5.536;2022-08-14T01:50:41;7.95;;;6.45;;
59786;SDS011;45672;51.612;5.536;2022-08-14T01:53:07;8.52;;;6.45;;
59786;SDS011;45672;51.612;5.536;2022-08-14T01:55:32;7.03;;;6.32;;
59786;SDS011;45672;51.612;5.536;2022-08-14T01:57:59;7.20;;;6.53;;
59786;SDS011;45672;51.612;5.536;2022-08-14T02:00:25;8.75;;;6.28;;
59786;SDS011;45672;51.612;5.536;2022-08-14T02:02:50;9.05;;;6.53;;
59786;SDS011;45672;51.612;5.536;2022-08-14T02:05:15;7.25;;;6.55;;
59786;SDS011;45672;51.612;5.536;2022-08-14T02:07:41;7.32;;;6.30;;
59786;SDS011;45672;51.612;5.536;2022-08-14T02:10:09;12.25;;;6.75;;
59786;SDS011;45672;51.612;5.536;2022-08-14T02:12:36;6.78;;;6.10;;
59786;SDS011;45672;51.612;5.536;2022-08-14T02:15:03;10.80;;;6.78;;
59786;SDS011;45672;51.612;5.536;2022-08-14T02:17:31;11.35;;;6.32;;
59786;SDS011;45672;51.612;5.536;2022-08-14T02:19:57;7.13;;;6.45;;
59786;SDS011;45672;51.612;5.536;2022-08-14T02:22:22;13.32;;;6.68;;
59786;SDS011;45672;51.612;5.536;2022-08-14T02:24:49;7.10;;;6.40;;
59786;SDS011;45672;51.612;5.536;2022-08-14T02:27:15;7.68;;;6.97;;
59786;SDS011;45672;51.612;5.536;2022-08-14T02:29:42;10.70;;;6.93;;
59786;SDS011;45672;51.612;5.536;2022-08-14T02:32:08;10.45;;;6.70;;
59786;SDS011;45672;51.612;5.536;2022-08-14T02:34:34;8.40;;;6.93;;
59786;SDS011;45672;51.612;5.536;2022-08-14T02:37:04;8.60;;;7.13;;
59786;SDS011;45672;51.612;5.536;2022-08-14T02:39:39;9.18;;;7.43;;
59786;SDS011;45672;51.612;5.536;2022-08-14T02:42:08;11.13;;;6.82;;
59786;SDS011;45672;51.612;5.536;2022-08-14T02:44:42;10.57;;;7.13;;
59786;SDS011;45672;51.612;5.536;2022-08-14T02:47:08;8.25;;;6.80;;
59786;SDS011;45672;51.612;5.536;2022-08-14T02:49:35;8.60;;;7.75;;
59786;SDS011;45672;51.612;5.536;2022-08-14T02:52:01;13.10;;;7.57;;
59786;SDS011;45672;51.612;5.536;2022-08-14T02:54:31;10.18;;;7.40;;
59786;SDS011;45672;51.612;5.536;2022-08-14T02:56:58;8.18;;;7.22;;
59786;SDS011;45672;51.612;5.536;2022-08-14T02:59:25;8.20;;;7.50;;
59786;SDS011;45672;51.612;5.536;2022-08-14T03:01:56;8.60;;;7.72;;
59786;SDS011;45672;51.612;5.536;2022-08-14T03:04:22;8.73;;;7.53;;
59786;SDS011;45672;51.612;5.536;2022-08-14T03:06:50;8.15;;;7.50;;
59786;SDS011;45672;51.612;5.536;2022-08-14T03:09:16;9.25;;;8.35;;
59786;SDS011;45672;51.612;5.536;2022-08-14T03:11:41;8.88;;;7.60;;
59786;SDS011;45672;51.612;5.536;2022-08-14T03:14:08;10.18;;;8.30;;
59786;SDS011;45672;51.612;5.536;2022-08-14T03:16:36;9.20;;;8.18;;
59786;SDS011;45672;51.612;5.536;2022-08-14T03:19:03;9.48;;;8.27;;
59786;SDS011;45672;51.612;5.536;2022-08-14T03:21:31;10.95;;;8.23;;
59786;SDS011;45672;51.612;5.536;2022-08-14T03:23:57;9.93;;;8.68;;
59786;SDS011;45672;51.612;5.536;2022-08-14T03:26:36;11.38;;;8.50;;
59786;SDS011;45672;51.612;5.536;2022-08-14T03:29:06;14.13;;;8.73;;
59786;SDS011;45672;51.612;5.536;2022-08-14T03:31:32;14.05;;;8.68;;
59786;SDS011;45672;51.612;5.536;2022-08-14T03:33:58;15.90;;;8.88;;
59786;SDS011;45672;51.612;5.536;2022-08-14T03:36:23;12.40;;;8.90;;
59786;SDS011;45672;51.612;5.536;2022-08-14T03:38:50;9.13;;;8.02;;
59786;SDS011;45672;51.612;5.536;2022-08-14T03:41:23;12.70;;;8.50;;
59786;SDS011;45672;51.612;5.536;2022-08-14T03:43:51;15.25;;;9.00;;
59786;SDS011;45672;51.612;5.536;2022-08-14T03:46:22;10.05;;;9.15;;
59786;SDS011;45672;51.612;5.536;2022-08-14T03:48:50;15.68;;;8.70;;
59786;SDS011;45672;51.612;5.536;2022-08-14T03:51:18;14.50;;;9.05;;
59786;SDS011;45672;51.612;5.536;2022-08-14T03:53:44;10.45;;;9.35;;
59786;SDS011;45672;51.612;5.536;2022-08-14T03:56:12;12.32;;;9.70;;
59786;SDS011;45672;51.612;5.536;2022-08-14T03:58:40;11.13;;;10.10;;
59786;SDS011;45672;51.612;5.536;2022-08-14T04:01:11;12.67;;;10.00;;
59786;SDS011;45672;51.612;5.536;2022-08-14T04:03:37;18.30;;;10.55;;
59786;SDS011;45672;51.612;5.536;2022-08-14T04:06:03;10.93;;;9.20;;
59786;SDS011;45672;51.612;5.536;2022-08-14T04:08:29;18.80;;;10.40;;
59786;SDS011;45672;51.612;5.536;2022-08-14T04:10:58;12.50;;;9.73;;
59786;SDS011;45672;51.612;5.536;2022-08-14T04:13:24;12.13;;;10.45;;
59786;SDS011;45672;51.612;5.536;2022-08-14T04:15:49;12.32;;;10.23;;
59786;SDS011;45672;51.612;5.536;2022-08-14T04:18:15;12.15;;;10.55;;
59786;SDS011;45672;51.612;5.536;2022-08-14T04:20:40;13.00;;;9.80;;
59786;SDS011;45672;51.612;5.536;2022-08-14T04:23:06;11.65;;;10.45;;
59786;SDS011;45672;51.612;5.536;2022-08-14T04:25:33;12.90;;;10.30;;
59786;SDS011;45672;51.612;5.536;2022-08-14T04:28:00;11.50;;;10.30;;
59786;SDS011;45672;51.612;5.536;2022-08-14T04:30:27;13.77;;;10.43;;
59786;SDS011;45672;51.612;5.536;2022-08-14T04:32:53;11.30;;;10.02;;
59786;SDS011;45672;51.612;5.536;2022-08-14T04:35:19;11.60;;;10.40;;
59786;SDS011;45672;51.612;5.536;2022-08-14T04:37:44;13.77;;;10.30;;
59786;SDS011;45672;51.612;5.536;2022-08-14T04:40:28;15.75;;;10.77;;
59786;SDS011;45672;51.612;5.536;2022-08-14T04:43:12;14.75;;;10.48;;
59786;SDS011;45672;51.612;5.536;2022-08-14T04:45:56;14.85;;;10.85;;
59786;SDS011;45672;51.612;5.536;2022-08-14T04:48:22;12.07;;;10.77;;
59786;SDS011;45672;51.612;5.536;2022-08-14T04:50:49;18.92;;;10.52;;
59786;SDS011;45672;51.612;5.536;2022-08-14T04:53:19;12.48;;;10.88;;
59786;SDS011;45672;51.612;5.536;2022-08-14T04:55:49;11.52;;;10.45;;
59786;SDS011;45672;51.612;5.536;2022-08-14T04:58:16;12.73;;;11.45;;
59786;SDS011;45672;51.612;5.536;2022-08-14T05:00:46;11.95;;;10.90;;
59786;SDS011;45672;51.612;5.536;2022-08-14T05:03:19;13.15;;;11.45;;
59786;SDS011;45672;51.612;5.536;2022-08-14T05:05:46;15.15;;;11.18;;
59786;SDS011;45672;51.612;5.536;2022-08-14T05:08:15;15.43;;;11.18;;
59786;SDS011;45672;51.612;5.536;2022-08-14T05:10:43;16.90;;;11.52;;
59786;SDS011;45672;51.612;5.536;2022-08-14T05:13:11;13.00;;;11.60;;
59786;SDS011;45672;51.612;5.536;2022-08-14T05:15:38;11.93;;;10.85;;
59786;SDS011;45672;51.612;5.536;2022-08-14T05:18:08;20.27;;;12.30;;
59786;SDS011;45672;51.612;5.536;2022-08-14T05:20:44;14.10;;;12.68;;
59786;SDS011;45672;51.612;5.536;2022-08-14T05:23:13;14.35;;;11.77;;
59786;SDS011;45672;51.612;5.536;2022-08-14T05:25:42;16.23;;;12.02;;
59786;SDS011;45672;51.612;5.536;2022-08-14T05:28:12;14.35;;;12.80;;
59786;SDS011;45672;51.612;5.536;2022-08-14T05:30:38;13.90;;;12.60;;
59786;SDS011;45672;51.612;5.536;2022-08-14T05:33:07;21.75;;;13.30;;
59786;SDS011;45672;51.612;5.536;2022-08-14T05:35:32;16.55;;;12.38;;
59786;SDS011;45672;51.612;5.536;2022-08-14T05:37:58;14.23;;;12.63;;
59786;SDS011;45672;51.612;5.536;2022-08-14T05:40:24;17.42;;;13.63;;
59786;SDS011;45672;51.612;5.536;2022-08-14T05:42:49;26.17;;;13.82;;
59786;SDS011;45672;51.612;5.536;2022-08-14T05:45:15;17.23;;;13.50;;
59786;SDS011;45672;51.612;5.536;2022-08-14T05:47:41;18.25;;;13.57;;
59786;SDS011;45672;51.612;5.536;2022-08-14T05:50:08;18.10;;;13.77;;
59786;SDS011;45672;51.612;5.536;2022-08-14T05:52:36;14.88;;;13.45;;
59786;SDS011;45672;51.612;5.536;2022-08-14T05:55:02;16.48;;;13.98;;
59786;SDS011;45672;51.612;5.536;2022-08-14T05:57:28;18.55;;;14.43;;
59786;SDS011;45672;51.612;5.536;2022-08-14T05:59:53;16.00;;;14.32;;
59786;SDS011;45672;51.612;5.536;2022-08-14T06:02:18;18.52;;;14.10;;
59786;SDS011;45672;51.612;5.536;2022-08-14T06:04:44;15.95;;;14.32;;
59786;SDS011;45672;51.612;5.536;2022-08-14T06:07:12;16.02;;;14.38;;
59786;SDS011;45672;51.612;5.536;2022-08-14T06:09:38;23.45;;;15.73;;
59786;SDS011;45672;51.612;5.536;2022-08-14T06:12:03;17.00;;;14.80;;
59786;SDS011;45672;51.612;5.536;2022-08-14T06:14:29;23.13;;;14.90;;
59786;SDS011;45672;51.612;5.536;2022-08-14T06:16:55;18.10;;;14.45;;
59786;SDS011;45672;51.612;5.536;2022-08-14T06:19:20;17.90;;;14.43;;
59786;SDS011;45672;51.612;5.536;2022-08-14T06:21:45;16.60;;;14.30;;
59786;SDS011;45672;51.612;5.536;2022-08-14T06:24:11;23.88;;;14.23;;
59786;SDS011;45672;51.612;5.536;2022-08-14T06:26:36;16.90;;;14.60;;
59786;SDS011;45672;51.612;5.536;2022-08-14T06:29:01;16.13;;;14.43;;
59786;SDS011;45672;51.612;5.536;2022-08-14T06:31:27;15.60;;;13.68;;
59786;SDS011;45672;51.612;5.536;2022-08-14T06:33:52;20.52;;;13.82;;
59786;SDS011;45672;51.612;5.536;2022-08-14T06:36:17;18.83;;;13.27;;
59786;SDS011;45672;51.612;5.536;2022-08-14T06:38:43;15.02;;;12.35;;
59786;SDS011;45672;51.612;5.536;2022-08-14T06:41:08;17.63;;;12.15;;
59786;SDS011;45672;51.612;5.536;2022-08-14T06:43:33;17.02;;;12.43;;
59786;SDS011;45672;51.612;5.536;2022-08-14T06:45:58;13.82;;;10.48;;
59786;SDS011;45672;51.612;5.536;2022-08-14T06:48:24;12.35;;;10.45;;
59786;SDS011;45672;51.612;5.536;2022-08-14T06:50:51;11.02;;;10.02;;
59786;SDS011;45672;51.612;5.536;2022-08-14T06:53:18;11.25;;;10.02;;
59786;SDS011;45672;51.612;5.536;2022-08-14T06:55:44;10.30;;;9.30;;
59786;SDS011;45672;51.612;5.536;2022-08-14T06:58:14;13.20;;;9.05;;
59786;SDS011;45672;51.612;5.536;2022-08-14T07:00:41;15.02;;;8.57;;
59786;SDS011;45672;51.612;5.536;2022-08-14T07:03:30;8.90;;;8.13;;
59786;SDS011;45672;51.612;5.536;2022-08-14T07:06:15;10.18;;;8.23;;
59786;SDS011;45672;51.612;5.536;2022-08-14T07:08:41;9.70;;;7.65;;
59786;SDS011;45672;51.612;5.536;2022-08-14T07:11:07;11.30;;;7.45;;
59786;SDS011;45672;51.612;5.536;2022-08-14T07:13:33;13.68;;;6.60;;
59786;SDS011;45672;51.612;5.536;2022-08-14T07:15:58;9.13;;;6.93;;
59786;SDS011;45672;51.612;5.536;2022-08-14T07:18:25;8.90;;;6.55;;
59786;SDS011;45672;51.612;5.536;2022-08-14T07:20:53;9.15;;;6.20;;
59786;SDS011;45672;51.612;5.536;2022-08-14T07:23:19;9.98;;;6.07;;
59786;SDS011;45672;51.612;5.536;2022-08-14T07:25:47;6.60;;;6.00;;
59786;SDS011;45672;51.612;5.536;2022-08-14T07:28:19;17.15;;;5.68;;
59786;SDS011;45672;51.612;5.536;2022-08-14T07:31:04;6.53;;;5.85;;
59786;SDS011;45672;51.612;5.536;2022-08-14T07:33:42;8.20;;;5.32;;
59786;SDS011;45672;51.612;5.536;2022-08-14T07:36:10;7.13;;;5.30;;
59786;SDS011;45672;51.612;5.536;2022-08-14T07:38:37;6.88;;;5.50;;
59786;SDS011;45672;51.612;5.536;2022-08-14T07:41:05;6.82;;;5.32;;
59786;SDS011;45672;51.612;5.536;2022-08-14T07:43:32;5.78;;;4.72;;
59786;SDS011;45672;51.612;5.536;2022-08-14T07:45:57;6.85;;;5.38;;
59786;SDS011;45672;51.612;5.536;2022-08-14T07:48:23;8.10;;;4.82;;
59786;SDS011;45672;51.612;5.536;2022-08-14T07:50:48;7.00;;;5.10;;
59786;SDS011;45672;51.612;5.536;2022-08-14T07:53:15;5.45;;;5.00;;
59786;SDS011;45672;51.612;5.536;2022-08-14T07:55:41;6.85;;;5.20;;
59786;SDS011;45672;51.612;5.536;2022-08-14T07:58:06;7.82;;;5.00;;
59786;SDS011;45672;51.612;5.536;2022-08-14T08:00:32;10.27;;;4.72;;
59786;SDS011;45672;51.612;5.536;2022-08-14T08:02:58;9.98;;;4.30;;
59786;SDS011;45672;51.612;5.536;2022-08-14T08:05:23;5.32;;;4.80;;
59786;SDS011;45672;51.612;5.536;2022-08-14T08:07:50;9.07;;;4.82;;
59786;SDS011;45672;51.612;5.536;2022-08-14T08:10:17;12.13;;;4.40;;
59786;SDS011;45672;51.612;5.536;2022-08-14T08:15:30;4.97;;;4.38;;
59786;SDS011;45672;51.612;5.536;2022-08-14T08:18:01;6.97;;;4.50;;
59786;SDS011;45672;51.612;5.536;2022-08-14T08:20:31;7.70;;;4.20;;
59786;SDS011;45672;51.612;5.536;2022-08-14T08:22:58;4.80;;;4.22;;
59786;SDS011;45672;51.612;5.536;2022-08-14T08:25:25;10.30;;;4.57;;
59786;SDS011;45672;51.612;5.536;2022-08-14T08:33:22;4.43;;;4.00;;
59786;SDS011;45672;51.612;5.536;2022-08-14T08:35:50;6.50;;;4.13;;
59786;SDS011;45672;51.612;5.536;2022-08-14T08:38:17;8.98;;;4.10;;
59786;SDS011;45672;51.612;5.536;2022-08-14T08:40:45;5.13;;;3.80;;
59786;SDS011;45672;51.612;5.536;2022-08-14T08:43:29;5.32;;;3.63;;
59786;SDS011;45672;51.612;5.536;2022-08-14T08:45:59;6.88;;;3.95;;
59786;SDS011;45672;51.612;5.536;2022-08-14T08:48:27;7.03;;;3.97;;
59786;SDS011;45672;51.612;5.536;2022-08-14T08:50:58;5.50;;;4.22;;
59786;SDS011;45672;51.612;5.536;2022-08-14T08:53:32;9.25;;;3.75;;
59786;SDS011;45672;51.612;5.536;2022-08-14T08:55:58;7.18;;;3.80;;
59786;SDS011;45672;51.612;5.536;2022-08-14T08:58:25;8.20;;;3.92;;
59786;SDS011;45672;51.612;5.536;2022-08-14T09:00:52;5.90;;;3.63;;
59786;SDS011;45672;51.612;5.536;2022-08-14T09:03:20;10.65;;;3.65;;
59786;SDS011;45672;51.612;5.536;2022-08-14T09:08:17;7.10;;;4.00;;
59786;SDS011;45672;51.612;5.536;2022-08-14T09:10:43;5.65;;;3.55;;
59786;SDS011;45672;51.612;5.536;2022-08-14T09:13:10;5.15;;;3.30;;
59786;SDS011;45672;51.612;5.536;2022-08-14T09:15:40;8.40;;;3.95;;
59786;SDS011;45672;51.612;5.536;2022-08-14T09:18:11;10.32;;;3.42;;
59786;SDS011;45672;51.612;5.536;2022-08-14T09:20:38;7.18;;;3.55;;
59786;SDS011;45672;51.612;5.536;2022-08-14T09:23:05;6.70;;;3.67;;
59786;SDS011;45672;51.612;5.536;2022-08-14T09:25:32;6.00;;;3.38;;
59786;SDS011;45672;51.612;5.536;2022-08-14T09:27:58;5.15;;;3.60;;
59786;SDS011;45672;51.612;5.536;2022-08-14T09:30:24;9.87;;;3.70;;
59786;SDS011;45672;51.612;5.536;2022-08-14T09:35:23;6.30;;;3.47;;
59786;SDS011;45672;51.612;5.536;2022-08-14T09:37:59;10.43;;;3.90;;
59786;SDS011;45672;51.612;5.536;2022-08-14T09:40:41;6.82;;;3.80;;
59786;SDS011;45672;51.612;5.536;2022-08-14T09:43:42;5.45;;;3.75;;
59786;SDS011;45672;51.612;5.536;2022-08-14T09:46:17;4.68;;;3.78;;
59786;SDS011;45672;51.612;5.536;2022-08-14T09:48:43;4.63;;;3.70;;
59786;SDS011;45672;51.612;5.536;2022-08-14T09:51:18;6.63;;;3.50;;
59786;SDS011;45672;51.612;5.536;2022-08-14T09:53:56;10.93;;;3.38;;
59786;SDS011;45672;51.612;5.536;2022-08-14T09:56:24;12.00;;;3.20;;
59786;SDS011;45672;51.612;5.536;2022-08-14T09:58:50;8.37;;;3.33;;
59786;SDS011;45672;51.612;5.536;2022-08-14T10:01:17;6.15;;;3.20;;
59786;SDS011;45672;51.612;5.536;2022-08-14T10:03:51;3.33;;;3.00;;
59786;SDS011;45672;51.612;5.536;2022-08-14T10:06:19;4.00;;;2.80;;
59786;SDS011;45672;51.612;5.536;2022-08-14T10:11:18;4.43;;;2.70;;
59786;SDS011;45672;51.612;5.536;2022-08-14T10:13:49;4.25;;;2.80;;
59786;SDS011;45672;51.612;5.536;2022-08-14T10:16:39;6.05;;;3.20;;
59786;SDS011;45672;51.612;5.536;2022-08-14T10:19:07;7.13;;;3.20;;
59786;SDS011;45672;51.612;5.536;2022-08-14T10:21:34;6.88;;;3.55;;
59786;SDS011;45672;51.612;5.536;2022-08-14T10:24:01;4.95;;;3.35;;
59786;SDS011;45672;51.612;5.536;2022-08-14T10:26:27;6.28;;;3.05;;
59786;SDS011;45672;51.612;5.536;2022-08-14T10:28:52;7.82;;;3.15;;
59786;SDS011;45672;51.612;5.536;2022-08-14T10:31:23;6.30;;;3.00;;
59786;SDS011;45672;51.612;5.536;2022-08-14T10:36:33;6.13;;;3.20;;
59786;SDS011;45672;51.612;5.536;2022-08-14T10:39:02;4.63;;;2.88;;
59786;SDS011;45672;51.612;5.536;2022-08-14T10:41:39;9.23;;;3.50;;
59786;SDS011;45672;51.612;5.536;2022-08-14T10:44:07;3.40;;;3.13;;
59786;SDS011;45672;51.612;5.536;2022-08-14T10:46:38;4.07;;;3.67;;
59786;SDS011;45672;51.612;5.536;2022-08-14T10:49:05;4.50;;;3.55;;
59786;SDS011;45672;51.612;5.536;2022-08-14T10:51:33;3.83;;;3.47;;
59786;SDS011;45672;51.612;5.536;2022-08-14T10:54:03;7.63;;;3.55;;
59786;SDS011;45672;51.612;5.536;2022-08-14T10:56:32;9.38;;;3.67;;
59786;SDS011;45672;51.612;5.536;2022-08-14T10:59:03;9.07;;;4.18;;
59786;SDS011;45672;51.612;5.536;2022-08-14T11:01:36;5.47;;;3.83;;
59786;SDS011;45672;51.612;5.536;2022-08-14T11:04:02;5.68;;;3.78;;
59786;SDS011;45672;51.612;5.536;2022-08-14T11:06:28;7.05;;;3.70;;
59786;SDS011;45672;51.612;5.536;2022-08-14T11:08:55;3.78;;;3.25;;
59786;SDS011;45672;51.612;5.536;2022-08-14T11:11:21;5.57;;;3.28;;
59786;SDS011;45672;51.612;5.536;2022-08-14T11:13:49;6.20;;;3.95;;
59786;SDS011;45672;51.612;5.536;2022-08-14T11:16:14;6.18;;;3.90;;
59786;SDS011;45672;51.612;5.536;2022-08-14T11:18:44;4.15;;;3.70;;
59786;SDS011;45672;51.612;5.536;2022-08-14T11:21:13;4.55;;;3.13;;
59786;SDS011;45672;51.612;5.536;2022-08-14T11:23:41;6.37;;;3.70;;
59786;SDS011;45672;51.612;5.536;2022-08-14T11:26:09;4.10;;;3.30;;
59786;SDS011;45672;51.612;5.536;2022-08-14T11:28:40;7.68;;;3.50;;
59786;SDS011;45672;51.612;5.536;2022-08-14T11:31:10;3.80;;;3.50;;
59786;SDS011;45672;51.612;5.536;2022-08-14T11:33:37;4.75;;;3.88;;
59786;SDS011;45672;51.612;5.536;2022-08-14T11:36:06;7.15;;;3.25;;
59786;SDS011;45672;51.612;5.536;2022-08-14T11:38:37;5.65;;;3.42;;
59786;SDS011;45672;51.612;5.536;2022-08-14T11:41:08;5.47;;;3.20;;
59786;SDS011;45672;51.612;5.536;2022-08-14T11:43:41;4.10;;;3.53;;
59786;SDS011;45672;51.612;5.536;2022-08-14T11:46:08;11.50;;;3.20;;
59786;SDS011;45672;51.612;5.536;2022-08-14T11:48:43;3.90;;;3.47;;
59786;SDS011;45672;51.612;5.536;2022-08-14T11:51:12;3.30;;;2.97;;
59786;SDS011;45672;51.612;5.536;2022-08-14T11:53:49;3.38;;;3.17;;
59786;SDS011;45672;51.612;5.536;2022-08-14T11:58:41;9.07;;;3.50;;
59786;SDS011;45672;51.612;5.536;2022-08-14T12:01:07;6.65;;;3.53;;
59786;SDS011;45672;51.612;5.536;2022-08-14T12:03:34;5.97;;;3.38;;
59786;SDS011;45672;51.612;5.536;2022-08-14T12:06:08;6.90;;;3.20;;
59786;SDS011;45672;51.612;5.536;2022-08-14T12:08:35;3.83;;;3.10;;
59786;SDS011;45672;51.612;5.536;2022-08-14T12:11:01;6.93;;;3.22;;
59786;SDS011;45672;51.612;5.536;2022-08-14T12:13:28;3.95;;;3.33;;
59786;SDS011;45672;51.612;5.536;2022-08-14T12:16:02;5.13;;;3.00;;
59786;SDS011;45672;51.612;5.536;2022-08-14T12:18:31;7.28;;;3.10;;
59786;SDS011;45672;51.612;5.536;2022-08-14T12:20:58;3.53;;;2.95;;
59786;SDS011;45672;51.612;5.536;2022-08-14T12:24:06;4.60;;;3.00;;
59786;SDS011;45672;51.612;5.536;2022-08-14T12:26:33;3.50;;;3.00;;
59786;SDS011;45672;51.612;5.536;2022-08-14T12:29:07;4.63;;;3.17;;
59786;SDS011;45672;51.612;5.536;2022-08-14T12:31:37;6.32;;;3.00;;
59786;SDS011;45672;51.612;5.536;2022-08-14T12:34:03;5.43;;;3.15;;
59786;SDS011;45672;51.612;5.536;2022-08-14T12:36:30;7.93;;;3.35;;
59786;SDS011;45672;51.612;5.536;2022-08-14T12:38:57;3.33;;;3.03;;
59786;SDS011;45672;51.612;5.536;2022-08-14T12:41:24;3.35;;;3.15;;
59786;SDS011;45672;51.612;5.536;2022-08-14T12:43:53;3.50;;;3.20;;
59786;SDS011;45672;51.612;5.536;2022-08-14T12:48:56;3.70;;;3.10;;
59786;SDS011;45672;51.612;5.536;2022-08-14T12:51:24;3.33;;;3.03;;
59786;SDS011;45672;51.612;5.536;2022-08-14T12:53:54;3.10;;;2.90;;
59786;SDS011;45672;51.612;5.536;2022-08-14T12:56:21;5.47;;;3.20;;
59786;SDS011;45672;51.612;5.536;2022-08-14T12:58:56;6.30;;;2.97;;
59786;SDS011;45672;51.612;5.536;2022-08-14T13:01:26;7.82;;;3.20;;
59786;SDS011;45672;51.612;5.536;2022-08-14T13:04:03;3.88;;;3.38;;
59786;SDS011;45672;51.612;5.536;2022-08-14T13:09:00;3.50;;;3.20;;
59786;SDS011;45672;51.612;5.536;2022-08-14T13:11:28;4.65;;;3.25;;
59786;SDS011;45672;51.612;5.536;2022-08-14T13:14:02;4.75;;;3.33;;
59786;SDS011;45672;51.612;5.536;2022-08-14T13:16:28;3.67;;;3.28;;
59786;SDS011;45672;51.612;5.536;2022-08-14T13:18:53;5.93;;;3.35;;
59786;SDS011;45672;51.612;5.536;2022-08-14T13:21:24;3.33;;;3.03;;
59786;SDS011;45672;51.612;5.536;2022-08-14T13:23:50;3.38;;;3.05;;
59786;SDS011;45672;51.612;5.536;2022-08-14T13:26:17;5.15;;;3.38;;
59786;SDS011;45672;51.612;5.536;2022-08-14T13:28:43;3.38;;;3.05;;
59786;SDS011;45672;51.612;5.536;2022-08-14T13:31:11;4.68;;;3.30;;
59786;SDS011;45672;51.612;5.536;2022-08-14T13:33:38;3.67;;;3.38;;
59786;SDS011;45672;51.612;5.536;2022-08-14T13:36:04;7.45;;;3.20;;
59786;SDS011;45672;51.612;5.536;2022-08-14T13:38:30;4.22;;;3.00;;
59786;SDS011;45672;51.612;5.536;2022-08-14T13:40:55;5.53;;;3.25;;
59786;SDS011;45672;51.612;5.536;2022-08-14T13:43:21;5.43;;;3.30;;
59786;SDS011;45672;51.612;5.536;2022-08-14T13:45:50;4.25;;;3.20;;
59786;SDS011;45672;51.612;5.536;2022-08-14T13:48:18;3.72;;;3.42;;
59786;SDS011;45672;51.612;5.536;2022-08-14T13:50:44;5.10;;;3.30;;
59786;SDS011;45672;51.612;5.536;2022-08-14T13:53:12;5.28;;;3.20;;
59786;SDS011;45672;51.612;5.536;2022-08-14T13:55:40;4.45;;;3.30;;
59786;SDS011;45672;51.612;5.536;2022-08-14T13:58:06;4.22;;;3.35;;
59786;SDS011;45672;51.612;5.536;2022-08-14T14:00:32;3.58;;;3.28;;
59786;SDS011;45672;51.612;5.536;2022-08-14T14:03:01;3.55;;;3.25;;
59786;SDS011;45672;51.612;5.536;2022-08-14T14:05:29;5.18;;;3.10;;
59786;SDS011;45672;51.612;5.536;2022-08-14T14:07:55;3.08;;;2.85;;
59786;SDS011;45672;51.612;5.536;2022-08-14T14:10:22;5.82;;;2.80;;
59786;SDS011;45672;51.612;5.536;2022-08-14T14:12:48;2.88;;;2.67;;
59786;SDS011;45672;51.612;5.536;2022-08-14T14:15:15;2.63;;;2.38;;
59786;SDS011;45672;51.612;5.536;2022-08-14T14:17:43;3.13;;;2.67;;
59786;SDS011;45672;51.612;5.536;2022-08-14T14:20:11;2.88;;;2.60;;
59786;SDS011;45672;51.612;5.536;2022-08-14T14:22:40;6.38;;;3.10;;
59786;SDS011;45672;51.612;5.536;2022-08-14T14:25:06;3.20;;;2.40;;
59786;SDS011;45672;51.612;5.536;2022-08-14T14:27:33;3.15;;;2.80;;
59786;SDS011;45672;51.612;5.536;2022-08-14T14:30:01;2.78;;;2.60;;
59786;SDS011;45672;51.612;5.536;2022-08-14T14:32:29;3.10;;;2.90;;
59786;SDS011;45672;51.612;5.536;2022-08-14T14:34:57;2.83;;;2.63;;
59786;SDS011;45672;51.612;5.536;2022-08-14T14:37:25;3.22;;;2.95;;
59786;SDS011;45672;51.612;5.536;2022-08-14T14:39:52;3.00;;;2.72;;
59786;SDS011;45672;51.612;5.536;2022-08-14T14:42:20;3.10;;;2.90;;
59786;SDS011;45672;51.612;5.536;2022-08-14T14:44:49;3.65;;;2.97;;
59786;SDS011;45672;51.612;5.536;2022-08-14T14:47:21;4.35;;;2.97;;
59786;SDS011;45672;51.612;5.536;2022-08-14T14:49:47;6.25;;;2.90;;
59786;SDS011;45672;51.612;5.536;2022-08-14T14:52:13;3.78;;;2.95;;
59786;SDS011;45672;51.612;5.536;2022-08-14T14:54:40;5.07;;;2.80;;
59786;SDS011;45672;51.612;5.536;2022-08-14T14:57:07;3.13;;;2.92;;
59786;SDS011;45672;51.612;5.536;2022-08-14T14:59:37;4.10;;;2.90;;
59786;SDS011;45672;51.612;5.536;2022-08-14T15:02:04;3.13;;;2.92;;
59786;SDS011;45672;51.612;5.536;2022-08-14T15:04:36;3.25;;;3.00;;
59786;SDS011;45672;51.612;5.536;2022-08-14T15:07:04;3.25;;;2.95;;
59786;SDS011;45672;51.612;5.536;2022-08-14T15:09:30;4.15;;;2.92;;
59786;SDS011;45672;51.612;5.536;2022-08-14T15:11:58;3.22;;;3.03;;
59786;SDS011;45672;51.612;5.536;2022-08-14T15:14:23;6.70;;;2.97;;